Nearby METAR Reports

 

KTTN - Trenton, New Jersey, USA
Distance from station: W 8mi, 12km
Updated: Fri, 16-Apr-2021 9:53pm EDT
Overcast
Overcast
 Wind from NW
Wind: NW 12 mph , 19 km/h, Gust: 17 mph , 28 km/h
Temperature: 48°F , 9°C
Wind Chill: 43°F , 6°C
Dew Point: 36°F , 2°C
Humidity: 62%
Barometer: 29.73 inHg , 1006.8 hPa
Clouds: Overcast
Visibility: 10 miles , 16 km
Cloud details: Overcast 6000 ft
2021/04/17 01:53 KTTN 170153Z 31010G15KT 10SM OVC060 09/02 A2973 RMK AO2 SLP064 T00890022
KWRI - Wrightst/Mcguire, New Jersey, USA
Distance from station: SSE 18mi, 29km
Updated: Fri, 16-Apr-2021 10:19pm EDT
Mostly cloudy
Mostly cloudy
 Wind from NW
Wind: NW 13 mph , 20 km/h
Temperature: 48°F , 9°C
Wind Chill: 43°F , 6°C
Dew Point: 39°F , 4°C
Humidity: 71%
Barometer: 29.73 inHg , 1006.8 hPa
Clouds: Mostly cloudy
Visibility: 10 miles , 16 km
Cloud details: Few Clouds 1800 ft
Mostly cloudy 4500 ft
2021/04/17 02:19 KWRI 170219Z 31011KT 10SM FEW018 BKN045 09/04 A2973 RMK RAE19 SLP068 51019
KPNE - Philadelphia/Ne, Pennsylvania, USA
Distance from station: SW 22mi, 35km
Updated: Fri, 16-Apr-2021 9:54pm EDT
Overcast
Overcast
 Wind from NNW
Wind: NNW 15 mph , 24 km/h
Temperature: 48°F , 9°C
Wind Chill: 42°F , 6°C
Dew Point: 39°F , 4°C
Humidity: 71%
Barometer: 29.76 inHg , 1007.8 hPa
Clouds: Overcast
Visibility: 10 miles , 16 km
Cloud details: Overcast 6000 ft
2021/04/17 01:54 KPNE 170154Z 34013KT 10SM OVC060 09/04 A2976 RMK AO2 SLP079 T00940039
 
KDYL - Doylestown, Pennsylvania, USA
Distance from station: W 24mi, 38km
Updated: Fri, 16-Apr-2021 9:54pm EDT
Overcast
Overcast
 Wind from NW
Wind: NW 12 mph , 19 km/h, Gust: 16 mph , 26 km/h
Temperature: 48°F , 9°C
Wind Chill: 43°F , 6°C
Dew Point: 37°F , 3°C
Humidity: 66%
Barometer: 29.74 inHg , 1007.1 hPa
Clouds: Overcast
Visibility: 10 miles , 16 km
Cloud details: Mostly cloudy 4200 ft
Overcast 5000 ft
2021/04/17 01:54 KDYL 170154Z AUTO 32010G14KT 10SM BKN042 OVC050 09/03 A2974 RMK AO2 SLP074 T00890028
KSMQ - Somerville, New Jersey, USA
Distance from station: 0 24mi, 39km
Updated: Fri, 16-Apr-2021 9:53pm EDT
Light rain, Overcast
Light rain, Overcast
 Wind from varies
Wind: varies 7 mph , 11 km/h
Temperature: 46°F , 8°C
Wind Chill: 42°F , 6°C
Dew Point: 37°F , 3°C
Humidity: 71%
Barometer: 29.72 inHg , 1006.4 hPa
Summary: Light rain
Clouds: Overcast
Visibility: 10 miles , 16 km
Cloud details: Few Clouds 4200 ft
Overcast 6000 ft
2021/04/17 01:53 KSMQ 170153Z AUTO VRB06KT 10SM -RA FEW042 OVC060 08/03 A2972 RMK AO2 SLP064 P0000 T00830033
KVAY - Mount Holly, New Jersey, USA
Distance from station: SSW 24mi, 39km
Updated: Fri, 16-Apr-2021 9:54pm EDT
Overcast
Overcast
 Wind from NW
Wind: NW 12 mph , 19 km/h, Gust: 18 mph , 30 km/h
Temperature: 50°F , 10°C
Wind Chill: 45°F , 7°C
Dew Point: 37°F , 3°C
Humidity: 62%
Barometer: 29.75 inHg , 1007.5 hPa
Clouds: Overcast
Visibility: 10 miles , 16 km
Cloud details: Few Clouds 5500 ft
Overcast 7000 ft
2021/04/17 01:54 KVAY 170154Z AUTO 32010G16KT 10SM FEW055 OVC070 10/03 A2975 RMK AO2 SLP074 T01000028
 
KNEL - Lakehurst Nas, New Jersey, USA
Distance from station: SE 25mi, 40km
Updated: Fri, 16-Apr-2021 10:00pm EDT
Overcast
Overcast
 Wind from NW
Wind: NW 12 mph , 19 km/h, Gust: 21 mph , 33 km/h
Temperature: 61°F , 16°C
Dew Point: 39°F , 4°C
Humidity: 45%
Barometer: 29.72 inHg , 1006.4 hPa
Clouds: Overcast
Visibility: 10 miles , 16 km
Cloud details: Overcast 5500 ft
2021/04/17 02:00 KNEL 170200Z AUTO 31010G18KT 10SM OVC055 16/04 A2972 RMK AO2 SLP064 T01560044 $
KBLM - Belmar/Farmdale, New Jersey, USA
Distance from station: ESE 30mi, 48km
Updated: Fri, 16-Apr-2021 9:56pm EDT
Light rain, Overcast
Light rain, Overcast
 Wind from WNW
Wind: WNW 14 mph , 22 km/h
Temperature: 46°F , 8°C
Wind Chill: 40°F , 4°C
Dew Point: 39°F , 4°C
Humidity: 76%
Barometer: 29.73 inHg , 1006.8 hPa
Summary: Light rain
Clouds: Overcast
Visibility: 10 miles , 16 km
Cloud details: Overcast 5000 ft
2021/04/17 01:56 KBLM 170156Z AUTO 29012KT 10SM -RA OVC050 08/04 A2973 RMK AO2 SLP067 T00830044 PNO $
KMJX - Toms River, New Jersey, USA
Distance from station: SE 30mi, 49km
Updated: Fri, 16-Apr-2021 9:56pm EDT
Overcast
Overcast
 Wind from W
Wind: W 9 mph , 15 km/h
Temperature: 46°F , 8°C
Wind Chill: 41°F , 5°C
Dew Point: 41°F , 5°C
Humidity: 82%
Barometer: 29.74 inHg , 1007.1 hPa
Clouds: Overcast
Visibility: 10 miles , 16 km
Cloud details: Overcast 4800 ft
2021/04/17 01:56 KMJX 170156Z AUTO 28008KT 10SM OVC048 08/05 A2974 RMK AO2 RAE08 SLP075 P0000 T00780050
 
KLOM - Philly Wings F, Pennsylvania, USA
Distance from station: WSW 33mi, 52km
Updated: Fri, 16-Apr-2021 10:35pm EDT

 
2021/04/17 02:35 KLOM 170235Z AUTO RMK AO2 PWINO
KCKZ - Perkasie, Pennsylvania, USA
Distance from station: WNW 33mi, 53km
Updated: Fri, 16-Apr-2021 10:35pm EDT
Overcast
Overcast
 Wind from WNW
Wind: WNW 10 mph , 17 km/h, Gust: 22 mph , 35 km/h
Temperature: 46°F , 8°C
Wind Chill: 41°F , 5°C
Dew Point: 39°F , 4°C
Humidity: 76%
Barometer: 29.75 inHg , 1007.5 hPa
Clouds: Overcast
Visibility: 10 miles , 16 km
Cloud details: Overcast 5000 ft
2021/04/17 02:35 KCKZ 170235Z AUTO 30009G19KT 10SM OVC050 08/04 A2975 RMK AO2
KLDJ - Linden, New Jersey, USA
Distance from station: NE 33mi, 53km
Updated: Fri, 16-Apr-2021 10:35pm EDT
Light drizzle, Overcast
Light drizzle, Overcast
 Wind from NW
Wind: NW 20 mph , 31 km/h, Gust: 23 mph , 37 km/h
Temperature: 46°F , 8°C
Wind Chill: 38°F , 3°C
Dew Point: 37°F , 3°C
Humidity: 71%
Barometer: 29.71 inHg , 1006.1 hPa
Summary: Light Drizzle
Clouds: Overcast
Visibility: 10 miles , 16 km
Cloud details: Partly cloudy 4800 ft
Overcast 5500 ft
2021/04/17 02:35 KLDJ 170235Z AUTO 31017G20KT 10SM -DZ SCT048 OVC055 08/03 A2971 RMK AO2 T00800030
 
KMMU - Morristown Muni, New Jersey, USA
Distance from station: NNE 38mi, 62km
Updated: Fri, 16-Apr-2021 10:35pm EDT
Overcast
Overcast
 Wind from WNW
Wind: WNW 12 mph , 19 km/h
Temperature: 45°F , 7°C
Wind Chill: 39°F , 4°C
Dew Point: 37°F , 3°C
Humidity: 76%
Barometer: 29.71 inHg , 1006.1 hPa
Clouds: Overcast
Visibility: 10 miles , 16 km
Cloud details: Overcast 9000 ft
2021/04/17 02:35 KMMU 170235Z AUTO 29010KT 10SM OVC090 07/03 A2971 RMK AO2
KEWR - Newark, New Jersey, USA
Distance from station: NE 39mi, 63km
Updated: Fri, 16-Apr-2021 9:51pm EDT
Overcast
Overcast
 Wind from WNW
Wind: WNW 14 mph , 22 km/h
Temperature: 46°F , 8°C
Wind Chill: 40°F , 4°C
Dew Point: 37°F , 3°C
Humidity: 71%
Barometer: 29.70 inHg , 1005.8 hPa
Clouds: Overcast
Visibility: 10 miles , 16 km
Cloud details: Few Clouds 3000 ft
Overcast 9000 ft
2021/04/17 01:51 KEWR 170151Z 30012KT 10SM FEW030 OVC090 08/03 A2970 RMK AO2 RAE0055B17E47 SLP058 P0000 T00830033 $
KUKT - Quakertown Arp, Pennsylvania, USA
Distance from station: WNW 39mi, 63km
Updated: Fri, 16-Apr-2021 10:35pm EDT
Overcast
Overcast
 Wind from W
Wind: W 7 mph , 11 km/h
Temperature: 46°F , 8°C
Wind Chill: 42°F , 6°C
Dew Point: 39°F , 4°C
Humidity: 76%
Barometer: 29.75 inHg , 1007.5 hPa
Clouds: Overcast
Visibility: 10 miles , 16 km
Cloud details: Overcast 5500 ft
2021/04/17 02:35 KUKT 170235Z AUTO 27006KT 10SM OVC055 08/04 A2975 RMK A01
 
KPHL - Philadelphia, Pennsylvania, USA
Distance from station: SW 40mi, 65km
Updated: Fri, 16-Apr-2021 9:54pm EDT
Overcast
Overcast
 Wind from NNW
Wind: NNW 10 mph , 17 km/h
Temperature: 50°F , 10°C
Wind Chill: 46°F , 8°C
Dew Point: 37°F , 3°C
Humidity: 62%
Barometer: 29.76 inHg , 1007.8 hPa
Clouds: Overcast
Visibility: 10 miles , 16 km
Cloud details: Partly cloudy 5000 ft
Overcast 7000 ft
2021/04/17 01:54 KPHL 170154Z 33009KT 10SM SCT050 OVC070 10/03 A2976 RMK AO2 SLP078 T01000033
KJRB - Manhattan/Dwntwn, New York, USA
Distance from station: NE 46mi, 74km
Updated: Fri, 16-Apr-2021 10:22pm EDT
Overcast
Overcast
 Wind from varies
Wind: varies 5 mph , 7 km/h
Temperature: 48°F , 9°C
Wind Chill: 46°F , 8°C
Dew Point: 37°F , 3°C
Humidity: 66%
Barometer: 29.71 inHg , 1006.1 hPa
Clouds: Overcast
Visibility: 10 miles , 16 km
Cloud details: Few Clouds 2700 ft
Overcast 11000 ft
2021/04/17 02:22 KJRB 170222Z AUTO VRB04KT 10SM FEW027 OVC110 09/03 A2971 RMK AO2 $
KPTW - Pottstown, Pennsylvania, USA
Distance from station: W 46mi, 74km
Updated: Fri, 16-Apr-2021 9:54pm EDT
Overcast
Overcast
 Wind from WNW
Wind: WNW 5 mph , 7 km/h
Temperature: 46°F , 8°C
Wind Chill: 44°F , 7°C
Dew Point: 37°F , 3°C
Humidity: 71%
Barometer: 29.78 inHg , 1008.5 hPa
Clouds: Overcast
Visibility: 10 miles , 16 km
Cloud details: Mostly cloudy 4000 ft
Mostly cloudy 4700 ft
Overcast 6500 ft
2021/04/17 01:54 KPTW 170154Z AUTO 30004KT 10SM BKN040 BKN047 OVC065 08/03 A2978 RMK AO2 SLP082 T00780033
 
KCDW - Caldwell, New Jersey, USA
Distance from station: NNE 47mi, 76km
Updated: Fri, 16-Apr-2021 9:53pm EDT
Overcast
Overcast
 Wind from WNW
Wind: WNW 10 mph , 17 km/h
Temperature: 46°F , 8°C
Wind Chill: 41°F , 5°C
Dew Point: 36°F , 2°C
Humidity: 66%
Barometer: 29.71 inHg , 1006.1 hPa
Clouds: Overcast
Visibility: 10 miles , 16 km
Cloud details: Partly cloudy 6500 ft
Overcast 8000 ft
2021/04/17 01:53 KCDW 170153Z 30009KT 10SM SCT065 OVC080 08/02 A2971 RMK AO2 SLP067 T00830022
KXLL - Allentown Queen, Pennsylvania, USA
Distance from station: WNW 47mi, 76km
Updated: Fri, 16-Apr-2021 10:35pm EDT
Overcast
Overcast
 Wind from WNW
Wind: WNW 8 mph , 13 km/h
Temperature: 46°F , 8°C
Wind Chill: 42°F , 6°C
Dew Point: 37°F , 3°C
Humidity: 71%
Barometer: 29.77 inHg , 1008.1 hPa
Clouds: Overcast
Visibility: 10 miles , 16 km
Cloud details: Overcast 6000 ft
2021/04/17 02:35 KXLL 170235Z AUTO 29007KT 10SM OVC060 08/03 A2977 RMK AO2